1911 NOT_NAMED (1911077S16147)


IBTrACS version v04r00. Visit IBTrACS website for data access.
Please direct all questions to the IBTrACS Q and A forum

Storm track - Intensity - Wind Radii - Intensity Data - Source Data - All data

Summary Information

Storm ID 1911077S16147
Start Mar 17 23Z
Landfall Mar 18 09Z
End Mar 19 23Z
ATCF IDs
Track status Best track data.

Storm track plot

Map of storm track

Intensity plots

No Intensity information for this storm


Radial wind information

No radial wind information for this storm


Position and Intensity Table

BASIN ISO_TIME_________ NATURE LAT LON
degrees north degrees east
SP 1911-03-17 23:00:00 NR -15.60 146.80
SP 1911-03-18 00:00:00 NR -15.69 146.64
SP 03:00:00 NR -15.98 146.14
SP 06:00:00 NR -16.25 145.63
SP 09:00:00 NR -16.53 145.09
SP 11:00:00 NR -16.70 144.70
SP 12:00:00 NR -16.79 144.50
SP 15:00:00 NR -17.03 143.88
SP 18:00:00 NR -17.22 143.25
SP 21:00:00 NR -17.36 142.66
SP 23:00:00 NR -17.40 142.30
SP 1911-03-19 00:00:00 NR -17.42 142.14
SP 03:00:00 NR -17.41 141.69
SP 06:00:00 NR -17.33 141.31
SP 09:00:00 NR -17.16 140.99
SP 11:00:00 NR -17.00 140.80
SP 12:00:00 NR -16.91 140.71
SP 15:00:00 NR -16.58 140.49
SP 18:00:00 NR -16.20 140.29
SP 21:00:00 NR -15.79 140.11
SP 23:00:00 NR -15.50 140.00

Source Information

Agency Information
USA
TOKYO
CMA
HKO
NEWDELHI
REUNION
BOM
NADI
WELLINGTON
DS824
TD9636 cons_worldwide_trop_cyclone_18710101-19891231-006:Line=536
TD9635
NEUMANN
MLC

All available IBTrACS Data

SEASON BASIN SUBBASIN ISO_TIME_________ NATURE LAT LON DIST2LAND LANDFALL IFLAG USA SSHS TD9636 LAT TD9636 LON TD9636 STAGE STORM SPEED STORM DIR
Year degrees north degrees east km km 1 degrees north degrees east kts degrees
1911 SP EA 1911-03-17 23:00:00 NR -15.60 146.80 149 135 __________O___ -1 -15.60 146.80 7 11 239
1911 SP EA 1911-03-18 00:00:00 NR -15.69 146.64 125 75 __________P___ -1 -15.69 146.64 7 11 239
1911 SP EA 03:00:00 NR -15.98 146.14 65 21 __________P___ -1 -15.98 146.14 7 11 240
1911 SP EA 06:00:00 NR -16.25 145.63 10 0 __________P___ -1 -16.25 145.63 7 12 242
1911 SP EA 09:00:00 NR -16.53 145.09 0 0 __________P___ -1 -16.53 145.09 7 12 243
1911 SP EA 11:00:00 NR -16.70 144.70 0 0 __________O___ -1 -16.70 144.70 7 12 245
1911 SP EA 12:00:00 NR -16.79 144.50 0 0 __________P___ -1 -16.79 144.50 7 13 248
1911 SP EA 15:00:00 NR -17.03 143.88 0 0 __________P___ -1 -17.03 143.88 7 13 250
1911 SP EA 18:00:00 NR -17.22 143.25 0 0 __________P___ -1 -17.22 143.25 7 12 254
1911 SP EA 21:00:00 NR -17.36 142.66 0 0 __________P___ -1 -17.36 142.66 7 11 259
1911 SP EA 23:00:00 NR -17.40 142.30 0 0 __________O___ -1 -17.40 142.30 7 10 263
1911 SP EA 1911-03-19 00:00:00 NR -17.42 142.14 0 0 __________P___ -1 -17.42 142.14 7 9 269
1911 SP EA 03:00:00 NR -17.41 141.69 0 0 __________P___ -1 -17.41 141.69 7 8 277
1911 SP EA 06:00:00 NR -17.33 141.31 0 0 __________P___ -1 -17.33 141.31 7 7 291
1911 SP EA 09:00:00 NR -17.16 140.99 0 0 __________P___ -1 -17.16 140.99 7 7 304
1911 SP EA 11:00:00 NR -17.00 140.80 21 21 __________O___ -1 -17.00 140.80 7 7 314
1911 SP EA 12:00:00 NR -16.91 140.71 33 33 __________P___ -1 -16.91 140.71 7 8 324
1911 SP EA 15:00:00 NR -16.58 140.49 69 69 __________P___ -1 -16.58 140.49 7 8 330
1911 SP EA 18:00:00 NR -16.20 140.29 109 109 __________P___ -1 -16.20 140.29 7 9 336
1911 SP EA 21:00:00 NR -15.79 140.11 139 139 __________P___ -1 -15.79 140.11 7 9 338
1911 SP EA 23:00:00 NR -15.50 140.00 156 __________O___ -1 -15.50 140.00 7 9 339